sensor_id;sensor_type;location;lat;lon;timestamp;temperature;humidity
53695;DHT22;39588;51.124;7.190;2023-05-07T00:01:22;14.80;99.90
53695;DHT22;39588;51.124;7.190;2023-05-07T00:03:47;14.80;99.90
53695;DHT22;39588;51.124;7.190;2023-05-07T00:08:39;14.80;99.90
53695;DHT22;39588;51.124;7.190;2023-05-07T00:16:01;14.80;99.90
53695;DHT22;39588;51.124;7.190;2023-05-07T00:25:45;14.80;99.90
53695;DHT22;39588;51.124;7.190;2023-05-07T00:28:11;14.70;99.90
53695;DHT22;39588;51.124;7.190;2023-05-07T00:30:36;14.70;99.90
53695;DHT22;39588;51.124;7.190;2023-05-07T00:33:02;14.70;99.90
53695;DHT22;39588;51.124;7.190;2023-05-07T00:35:29;14.70;99.90
53695;DHT22;39588;51.124;7.190;2023-05-07T00:40:21;14.70;99.90
53695;DHT22;39588;51.124;7.190;2023-05-07T00:42:47;14.70;99.90
53695;DHT22;39588;51.124;7.190;2023-05-07T00:47:40;14.70;99.90
53695;DHT22;39588;51.124;7.190;2023-05-07T00:50:08;14.60;99.90
53695;DHT22;39588;51.124;7.190;2023-05-07T00:55:05;14.60;99.90
53695;DHT22;39588;51.124;7.190;2023-05-07T00:57:35;14.60;99.90
53695;DHT22;39588;51.124;7.190;2023-05-07T01:00:03;14.60;99.90
53695;DHT22;39588;51.124;7.190;2023-05-07T01:04:56;14.60;99.90
53695;DHT22;39588;51.124;7.190;2023-05-07T01:07:22;14.60;99.90
53695;DHT22;39588;51.124;7.190;2023-05-07T01:12:15;14.50;99.90
53695;DHT22;39588;51.124;7.190;2023-05-07T01:19:33;14.60;99.90
53695;DHT22;39588;51.124;7.190;2023-05-07T01:22:08;14.50;99.90
53695;DHT22;39588;51.124;7.190;2023-05-07T01:24:37;14.50;99.90
53695;DHT22;39588;51.124;7.190;2023-05-07T01:27:03;14.50;99.90
53695;DHT22;39588;51.124;7.190;2023-05-07T01:29:29;14.50;99.90
53695;DHT22;39588;51.124;7.190;2023-05-07T01:31:57;14.50;99.90
53695;DHT22;39588;51.124;7.190;2023-05-07T01:34:25;14.50;99.90
53695;DHT22;39588;51.124;7.190;2023-05-07T01:36:53;14.50;99.90
53695;DHT22;39588;51.124;7.190;2023-05-07T01:39:27;14.50;99.90
53695;DHT22;39588;51.124;7.190;2023-05-07T01:41:56;14.50;99.90
53695;DHT22;39588;51.124;7.190;2023-05-07T01:44:22;14.40;99.90
53695;DHT22;39588;51.124;7.190;2023-05-07T01:46:49;14.40;99.90
53695;DHT22;39588;51.124;7.190;2023-05-07T01:49:16;14.40;99.90
53695;DHT22;39588;51.124;7.190;2023-05-07T01:51:42;14.40;99.90
53695;DHT22;39588;51.124;7.190;2023-05-07T01:54:08;14.40;99.90
53695;DHT22;39588;51.124;7.190;2023-05-07T02:03:53;14.40;99.90
53695;DHT22;39588;51.124;7.190;2023-05-07T02:06:19;14.30;99.90
53695;DHT22;39588;51.124;7.190;2023-05-07T02:08:45;14.30;99.90
53695;DHT22;39588;51.124;7.190;2023-05-07T02:11:11;14.30;99.90
53695;DHT22;39588;51.124;7.190;2023-05-07T02:19:43;14.20;99.90
53695;DHT22;39588;51.124;7.190;2023-05-07T02:22:10;14.20;99.90
53695;DHT22;39588;51.124;7.190;2023-05-07T02:24:35;14.20;99.90
53695;DHT22;39588;51.124;7.190;2023-05-07T02:29:28;14.20;99.90
53695;DHT22;39588;51.124;7.190;2023-05-07T02:31:54;14.20;99.90
53695;DHT22;39588;51.124;7.190;2023-05-07T02:34:21;14.20;99.90
53695;DHT22;39588;51.124;7.190;2023-05-07T02:36:46;14.20;99.90
53695;DHT22;39588;51.124;7.190;2023-05-07T02:39:13;14.20;99.90
53695;DHT22;39588;51.124;7.190;2023-05-07T02:44:05;14.20;99.90
53695;DHT22;39588;51.124;7.190;2023-05-07T02:46:30;14.10;99.90
53695;DHT22;39588;51.124;7.190;2023-05-07T02:48:56;14.10;99.90
53695;DHT22;39588;51.124;7.190;2023-05-07T02:51:22;14.10;99.90
53695;DHT22;39588;51.124;7.190;2023-05-07T02:53:48;14.00;99.90
53695;DHT22;39588;51.124;7.190;2023-05-07T02:58:40;13.90;99.90
53695;DHT22;39588;51.124;7.190;2023-05-07T03:01:07;13.90;99.90
53695;DHT22;39588;51.124;7.190;2023-05-07T03:05:59;13.80;99.90
53695;DHT22;39588;51.124;7.190;2023-05-07T03:08:25;13.80;99.90
53695;DHT22;39588;51.124;7.190;2023-05-07T03:10:51;13.70;99.90
53695;DHT22;39588;51.124;7.190;2023-05-07T03:23:01;13.60;99.90
53695;DHT22;39588;51.124;7.190;2023-05-07T03:25:27;13.60;99.90
53695;DHT22;39588;51.124;7.190;2023-05-07T03:27:53;13.60;99.90
53695;DHT22;39588;51.124;7.190;2023-05-07T03:32:45;13.60;99.90
53695;DHT22;39588;51.124;7.190;2023-05-07T03:35:11;13.60;99.90
53695;DHT22;39588;51.124;7.190;2023-05-07T03:37:38;13.60;99.90
53695;DHT22;39588;51.124;7.190;2023-05-07T03:40:04;13.60;99.90
53695;DHT22;39588;51.124;7.190;2023-05-07T03:44:56;13.60;99.90
53695;DHT22;39588;51.124;7.190;2023-05-07T03:52:14;13.50;99.90
53695;DHT22;39588;51.124;7.190;2023-05-07T03:57:06;13.40;99.90
53695;DHT22;39588;51.124;7.190;2023-05-07T04:11:42;13.40;99.90
53695;DHT22;39588;51.124;7.190;2023-05-07T04:14:08;13.40;99.90
53695;DHT22;39588;51.124;7.190;2023-05-07T04:16:34;13.40;99.90
53695;DHT22;39588;51.124;7.190;2023-05-07T04:19:00;13.40;99.90
53695;DHT22;39588;51.124;7.190;2023-05-07T04:23:52;13.50;99.90
53695;DHT22;39588;51.124;7.190;2023-05-07T04:26:17;13.50;99.90
53695;DHT22;39588;51.124;7.190;2023-05-07T04:28:43;13.50;99.90
53695;DHT22;39588;51.124;7.190;2023-05-07T04:36:01;13.80;99.90
53695;DHT22;39588;51.124;7.190;2023-05-07T04:38:31;13.90;99.90
53695;DHT22;39588;51.124;7.190;2023-05-07T04:41:02;14.00;99.90
53695;DHT22;39588;51.124;7.190;2023-05-07T04:43:28;14.10;99.90
53695;DHT22;39588;51.124;7.190;2023-05-07T04:48:19;14.20;99.90
53695;DHT22;39588;51.124;7.190;2023-05-07T04:50:49;14.30;99.90
53695;DHT22;39588;51.124;7.190;2023-05-07T04:53:15;14.40;99.90
53695;DHT22;39588;51.124;7.190;2023-05-07T04:55:41;14.50;99.90
53695;DHT22;39588;51.124;7.190;2023-05-07T04:58:08;14.50;99.90
53695;DHT22;39588;51.124;7.190;2023-05-07T05:07:52;14.50;99.80
53695;DHT22;39588;51.124;7.190;2023-05-07T05:15:12;14.80;99.70
53695;DHT22;39588;51.124;7.190;2023-05-07T05:17:38;14.80;99.60
53695;DHT22;39588;51.124;7.190;2023-05-07T05:20:04;14.90;99.50
53695;DHT22;39588;51.124;7.190;2023-05-07T05:22:31;15.00;99.60
53695;DHT22;39588;51.124;7.190;2023-05-07T05:24:57;15.10;99.40
53695;DHT22;39588;51.124;7.190;2023-05-07T05:37:06;15.50;99.00
53695;DHT22;39588;51.124;7.190;2023-05-07T05:39:32;15.50;98.90
53695;DHT22;39588;51.124;7.190;2023-05-07T05:41:58;15.50;99.00
53695;DHT22;39588;51.124;7.190;2023-05-07T05:49:16;15.50;99.00
53695;DHT22;39588;51.124;7.190;2023-05-07T05:51:43;15.60;99.00
53695;DHT22;39588;51.124;7.190;2023-05-07T05:54:08;15.60;99.00
53695;DHT22;39588;51.124;7.190;2023-05-07T05:56:34;15.70;99.00
53695;DHT22;39588;51.124;7.190;2023-05-07T06:18:28;16.50;98.40
53695;DHT22;39588;51.124;7.190;2023-05-07T06:20:53;16.50;98.30
53695;DHT22;39588;51.124;7.190;2023-05-07T06:23:19;16.50;98.20
53695;DHT22;39588;51.124;7.190;2023-05-07T06:25:49;16.50;98.10
53695;DHT22;39588;51.124;7.190;2023-05-07T06:30:44;16.60;98.20
53695;DHT22;39588;51.124;7.190;2023-05-07T06:33:10;16.70;98.10
53695;DHT22;39588;51.124;7.190;2023-05-07T06:35:36;16.70;98.20
53695;DHT22;39588;51.124;7.190;2023-05-07T06:38:01;16.80;97.90
53695;DHT22;39588;51.124;7.190;2023-05-07T06:45:19;16.90;98.00
53695;DHT22;39588;51.124;7.190;2023-05-07T06:55:04;17.20;98.20
53695;DHT22;39588;51.124;7.190;2023-05-07T06:57:30;17.20;98.10
53695;DHT22;39588;51.124;7.190;2023-05-07T07:09:39;17.90;97.30
53695;DHT22;39588;51.124;7.190;2023-05-07T07:12:05;18.10;97.20
53695;DHT22;39588;51.124;7.190;2023-05-07T07:14:31;18.10;97.20
53695;DHT22;39588;51.124;7.190;2023-05-07T07:19:22;18.20;97.20
53695;DHT22;39588;51.124;7.190;2023-05-07T07:24:14;18.40;97.30
53695;DHT22;39588;51.124;7.190;2023-05-07T07:36:28;19.00;96.80
53695;DHT22;39588;51.124;7.190;2023-05-07T07:38:54;19.20;96.20
53695;DHT22;39588;51.124;7.190;2023-05-07T07:41:19;19.40;96.40
53695;DHT22;39588;51.124;7.190;2023-05-07T07:43:45;19.50;96.30
53695;DHT22;39588;51.124;7.190;2023-05-07T07:46:12;19.60;96.30
53695;DHT22;39588;51.124;7.190;2023-05-07T07:53:30;20.30;95.10
53695;DHT22;39588;51.124;7.190;2023-05-07T07:55:55;20.40;94.60
53695;DHT22;39588;51.124;7.190;2023-05-07T08:00:47;20.90;95.60
53695;DHT22;39588;51.124;7.190;2023-05-07T08:03:14;21.30;95.10
53695;DHT22;39588;51.124;7.190;2023-05-07T08:17:53;21.90;93.20
53695;DHT22;39588;51.124;7.190;2023-05-07T08:20:18;21.90;92.50
53695;DHT22;39588;51.124;7.190;2023-05-07T08:25:10;21.80;93.80
53695;DHT22;39588;51.124;7.190;2023-05-07T08:30:03;21.60;93.60
53695;DHT22;39588;51.124;7.190;2023-05-07T08:44:39;20.70;94.60
53695;DHT22;39588;51.124;7.190;2023-05-07T08:47:06;20.70;95.20
53695;DHT22;39588;51.124;7.190;2023-05-07T08:49:33;20.90;95.60
53695;DHT22;39588;51.124;7.190;2023-05-07T08:51:59;21.20;95.50
53695;DHT22;39588;51.124;7.190;2023-05-07T08:54:26;21.50;94.90
53695;DHT22;39588;51.124;7.190;2023-05-07T08:56:53;21.90;95.10
53695;DHT22;39588;51.124;7.190;2023-05-07T08:59:18;22.10;91.20
53695;DHT22;39588;51.124;7.190;2023-05-07T09:01:44;22.30;92.60
53695;DHT22;39588;51.124;7.190;2023-05-07T09:04:10;22.50;92.30
53695;DHT22;39588;51.124;7.190;2023-05-07T09:09:03;22.40;91.20
53695;DHT22;39588;51.124;7.190;2023-05-07T09:11:30;22.40;90.10
53695;DHT22;39588;51.124;7.190;2023-05-07T09:13:57;22.30;91.80
53695;DHT22;39588;51.124;7.190;2023-05-07T09:16:25;22.30;92.40
53695;DHT22;39588;51.124;7.190;2023-05-07T09:18:52;22.30;91.60
53695;DHT22;39588;51.124;7.190;2023-05-07T09:21:18;22.60;91.60
53695;DHT22;39588;51.124;7.190;2023-05-07T09:23:44;22.80;92.60
53695;DHT22;39588;51.124;7.190;2023-05-07T09:28:40;22.90;81.60
53695;DHT22;39588;51.124;7.190;2023-05-07T09:31:10;23.10;84.90
53695;DHT22;39588;51.124;7.190;2023-05-07T09:33:37;23.30;81.30
53695;DHT22;39588;51.124;7.190;2023-05-07T09:36:07;23.30;89.70
53695;DHT22;39588;51.124;7.190;2023-05-07T09:38:33;23.40;90.90
53695;DHT22;39588;51.124;7.190;2023-05-07T09:41:11;23.40;88.40
53695;DHT22;39588;51.124;7.190;2023-05-07T09:43:38;23.30;86.50
53695;DHT22;39588;51.124;7.190;2023-05-07T09:46:14;23.40;87.80
53695;DHT22;39588;51.124;7.190;2023-05-07T09:48:43;23.30;84.00
53695;DHT22;39588;51.124;7.190;2023-05-07T09:51:25;23.40;82.40
53695;DHT22;39588;51.124;7.190;2023-05-07T09:53:54;23.80;81.70
53695;DHT22;39588;51.124;7.190;2023-05-07T09:56:21;23.90;78.90
53695;DHT22;39588;51.124;7.190;2023-05-07T09:58:49;23.70;83.20
53695;DHT22;39588;51.124;7.190;2023-05-07T10:01:17;23.70;83.40
53695;DHT22;39588;51.124;7.190;2023-05-07T10:03:44;24.00;75.10
53695;DHT22;39588;51.124;7.190;2023-05-07T10:06:12;24.00;76.50
53695;DHT22;39588;51.124;7.190;2023-05-07T10:08:38;23.90;77.40
53695;DHT22;39588;51.124;7.190;2023-05-07T10:11:05;24.10;72.10
53695;DHT22;39588;51.124;7.190;2023-05-07T10:13:33;24.30;73.60
53695;DHT22;39588;51.124;7.190;2023-05-07T10:16:03;24.50;75.90
53695;DHT22;39588;51.124;7.190;2023-05-07T10:18:31;24.50;76.70
53695;DHT22;39588;51.124;7.190;2023-05-07T10:21:07;23.90;77.90
53695;DHT22;39588;51.124;7.190;2023-05-07T10:23:33;23.80;74.70
53695;DHT22;39588;51.124;7.190;2023-05-07T10:26:02;23.80;75.20
53695;DHT22;39588;51.124;7.190;2023-05-07T10:28:30;23.70;71.30
53695;DHT22;39588;51.124;7.190;2023-05-07T10:33:33;23.60;72.50
53695;DHT22;39588;51.124;7.190;2023-05-07T10:36:01;23.80;75.60
53695;DHT22;39588;51.124;7.190;2023-05-07T10:38:46;23.90;74.70
53695;DHT22;39588;51.124;7.190;2023-05-07T10:41:11;24.20;70.60
53695;DHT22;39588;51.124;7.190;2023-05-07T10:43:42;24.00;72.30
53695;DHT22;39588;51.124;7.190;2023-05-07T10:46:19;23.80;71.90
53695;DHT22;39588;51.124;7.190;2023-05-07T10:51:30;24.10;72.00
53695;DHT22;39588;51.124;7.190;2023-05-07T10:56:41;24.50;75.70
53695;DHT22;39588;51.124;7.190;2023-05-07T11:02:05;24.40;68.80
53695;DHT22;39588;51.124;7.190;2023-05-07T11:04:33;24.00;67.20
53695;DHT22;39588;51.124;7.190;2023-05-07T11:15:08;23.70;72.70
53695;DHT22;39588;51.124;7.190;2023-05-07T11:17:35;23.80;72.00
53695;DHT22;39588;51.124;7.190;2023-05-07T11:20:17;24.00;71.90
53695;DHT22;39588;51.124;7.190;2023-05-07T11:22:43;24.00;72.60
53695;DHT22;39588;51.124;7.190;2023-05-07T11:25:08;24.20;70.00
53695;DHT22;39588;51.124;7.190;2023-05-07T11:27:34;24.10;66.80
53695;DHT22;39588;51.124;7.190;2023-05-07T11:30:00;23.90;70.70
53695;DHT22;39588;51.124;7.190;2023-05-07T11:32:30;24.00;72.40
53695;DHT22;39588;51.124;7.190;2023-05-07T11:34:58;24.00;72.10
53695;DHT22;39588;51.124;7.190;2023-05-07T11:37:25;24.00;72.30
53695;DHT22;39588;51.124;7.190;2023-05-07T11:40:10;23.90;72.70
53695;DHT22;39588;51.124;7.190;2023-05-07T11:42:38;23.90;75.80
53695;DHT22;39588;51.124;7.190;2023-05-07T11:45:05;23.80;76.30
53695;DHT22;39588;51.124;7.190;2023-05-07T11:47:32;23.90;73.90
53695;DHT22;39588;51.124;7.190;2023-05-07T11:50:05;24.10;72.60
53695;DHT22;39588;51.124;7.190;2023-05-07T11:55:00;24.30;76.10
53695;DHT22;39588;51.124;7.190;2023-05-07T11:57:27;24.40;74.30
53695;DHT22;39588;51.124;7.190;2023-05-07T11:59:59;24.50;70.20
53695;DHT22;39588;51.124;7.190;2023-05-07T12:02:28;24.40;69.00
53695;DHT22;39588;51.124;7.190;2023-05-07T12:04:54;24.40;65.60
53695;DHT22;39588;51.124;7.190;2023-05-07T12:07:23;24.70;70.20
53695;DHT22;39588;51.124;7.190;2023-05-07T12:09:50;24.90;66.70
53695;DHT22;39588;51.124;7.190;2023-05-07T12:12:15;25.10;70.90
53695;DHT22;39588;51.124;7.190;2023-05-07T12:14:43;25.30;67.70
53695;DHT22;39588;51.124;7.190;2023-05-07T12:17:11;25.40;69.10
53695;DHT22;39588;51.124;7.190;2023-05-07T12:19:39;25.60;66.50
53695;DHT22;39588;51.124;7.190;2023-05-07T12:22:05;25.70;61.80
53695;DHT22;39588;51.124;7.190;2023-05-07T12:24:49;25.50;60.20
53695;DHT22;39588;51.124;7.190;2023-05-07T12:27:16;25.10;61.20
53695;DHT22;39588;51.124;7.190;2023-05-07T12:29:49;25.30;63.50
53695;DHT22;39588;51.124;7.190;2023-05-07T12:32:19;25.40;59.70
53695;DHT22;39588;51.124;7.190;2023-05-07T12:34:46;25.20;62.00
53695;DHT22;39588;51.124;7.190;2023-05-07T12:37:12;25.10;64.60
53695;DHT22;39588;51.124;7.190;2023-05-07T12:39:43;25.00;60.30
53695;DHT22;39588;51.124;7.190;2023-05-07T12:42:15;24.50;59.70
53695;DHT22;39588;51.124;7.190;2023-05-07T12:44:41;24.50;63.30
53695;DHT22;39588;51.124;7.190;2023-05-07T12:47:10;24.60;62.50
53695;DHT22;39588;51.124;7.190;2023-05-07T12:49:36;24.40;61.50
53695;DHT22;39588;51.124;7.190;2023-05-07T12:52:05;24.50;67.00
53695;DHT22;39588;51.124;7.190;2023-05-07T12:54:37;24.70;66.60
53695;DHT22;39588;51.124;7.190;2023-05-07T12:57:06;24.70;64.40
53695;DHT22;39588;51.124;7.190;2023-05-07T12:59:33;24.60;62.80
53695;DHT22;39588;51.124;7.190;2023-05-07T13:01:59;24.30;61.40
53695;DHT22;39588;51.124;7.190;2023-05-07T13:04:25;24.10;61.70
53695;DHT22;39588;51.124;7.190;2023-05-07T13:06:51;23.90;61.70
53695;DHT22;39588;51.124;7.190;2023-05-07T13:09:17;23.80;64.80
53695;DHT22;39588;51.124;7.190;2023-05-07T13:16:34;23.50;71.20
53695;DHT22;39588;51.124;7.190;2023-05-07T13:19:00;23.50;73.30
53695;DHT22;39588;51.124;7.190;2023-05-07T13:21:25;23.20;74.20
53695;DHT22;39588;51.124;7.190;2023-05-07T13:23:52;23.00;75.10
53695;DHT22;39588;51.124;7.190;2023-05-07T13:26:18;22.80;77.30
53695;DHT22;39588;51.124;7.190;2023-05-07T13:28:43;22.70;78.90
53695;DHT22;39588;51.124;7.190;2023-05-07T13:36:02;22.60;85.10
53695;DHT22;39588;51.124;7.190;2023-05-07T13:38:30;22.60;85.10
53695;DHT22;39588;51.124;7.190;2023-05-07T13:53:05;22.30;89.90
53695;DHT22;39588;51.124;7.190;2023-05-07T13:55:31;22.30;90.60
53695;DHT22;39588;51.124;7.190;2023-05-07T13:57:59;22.60;90.40
53695;DHT22;39588;51.124;7.190;2023-05-07T14:00:26;22.80;89.60
53695;DHT22;39588;51.124;7.190;2023-05-07T14:02:52;22.70;90.00
53695;DHT22;39588;51.124;7.190;2023-05-07T14:05:18;22.70;90.10
53695;DHT22;39588;51.124;7.190;2023-05-07T14:07:44;22.60;91.20
53695;DHT22;39588;51.124;7.190;2023-05-07T14:10:10;22.60;91.80
53695;DHT22;39588;51.124;7.190;2023-05-07T14:12:36;22.80;92.80
53695;DHT22;39588;51.124;7.190;2023-05-07T14:15:07;23.00;92.20
53695;DHT22;39588;51.124;7.190;2023-05-07T14:17:33;22.80;91.70
53695;DHT22;39588;51.124;7.190;2023-05-07T14:27:17;22.20;92.20
53695;DHT22;39588;51.124;7.190;2023-05-07T14:29:42;22.10;92.60
53695;DHT22;39588;51.124;7.190;2023-05-07T14:32:08;21.90;93.10
53695;DHT22;39588;51.124;7.190;2023-05-07T14:34:34;21.70;93.70
53695;DHT22;39588;51.124;7.190;2023-05-07T14:37:00;21.70;94.30
53695;DHT22;39588;51.124;7.190;2023-05-07T14:39:26;21.70;94.50
53695;DHT22;39588;51.124;7.190;2023-05-07T14:44:20;21.60;93.60
53695;DHT22;39588;51.124;7.190;2023-05-07T14:46:46;21.60;94.60
53695;DHT22;39588;51.124;7.190;2023-05-07T14:49:13;21.70;94.10
53695;DHT22;39588;51.124;7.190;2023-05-07T14:51:45;21.60;93.10
53695;DHT22;39588;51.124;7.190;2023-05-07T14:54:14;21.40;93.30
53695;DHT22;39588;51.124;7.190;2023-05-07T14:56:41;21.30;93.50
53695;DHT22;39588;51.124;7.190;2023-05-07T14:59:07;21.10;94.20
53695;DHT22;39588;51.124;7.190;2023-05-07T15:01:35;20.90;94.50
53695;DHT22;39588;51.124;7.190;2023-05-07T15:04:02;20.80;94.60
53695;DHT22;39588;51.124;7.190;2023-05-07T15:08:54;20.60;94.80
53695;DHT22;39588;51.124;7.190;2023-05-07T15:16:12;20.70;95.10
53695;DHT22;39588;51.124;7.190;2023-05-07T15:21:04;20.50;95.30
53695;DHT22;39588;51.124;7.190;2023-05-07T15:23:30;20.40;95.40
53695;DHT22;39588;51.124;7.190;2023-05-07T15:25:56;20.30;95.60
53695;DHT22;39588;51.124;7.190;2023-05-07T15:28:22;20.20;95.90
53695;DHT22;39588;51.124;7.190;2023-05-07T15:30:47;20.10;96.60
53695;DHT22;39588;51.124;7.190;2023-05-07T15:35:39;19.70;99.20
53695;DHT22;39588;51.124;7.190;2023-05-07T15:42:58;19.30;99.90
53695;DHT22;39588;51.124;7.190;2023-05-07T15:45:23;19.20;99.90
53695;DHT22;39588;51.124;7.190;2023-05-07T15:55:08;18.80;99.90
53695;DHT22;39588;51.124;7.190;2023-05-07T16:00:00;18.70;99.90
53695;DHT22;39588;51.124;7.190;2023-05-07T16:02:26;18.70;99.90
53695;DHT22;39588;51.124;7.190;2023-05-07T16:07:18;18.70;99.90
53695;DHT22;39588;51.124;7.190;2023-05-07T16:17:03;18.90;99.90
53695;DHT22;39588;51.124;7.190;2023-05-07T16:31:40;19.00;99.90
53695;DHT22;39588;51.124;7.190;2023-05-07T16:34:05;19.00;99.90
53695;DHT22;39588;51.124;7.190;2023-05-07T16:36:31;19.00;99.90
53695;DHT22;39588;51.124;7.190;2023-05-07T16:46:15;18.90;99.90
53695;DHT22;39588;51.124;7.190;2023-05-07T16:53:33;18.70;99.90
53695;DHT22;39588;51.124;7.190;2023-05-07T16:56:04;18.60;99.90
53695;DHT22;39588;51.124;7.190;2023-05-07T16:58:30;18.60;99.90
53695;DHT22;39588;51.124;7.190;2023-05-07T17:03:23;18.50;99.90
53695;DHT22;39588;51.124;7.190;2023-05-07T17:05:49;18.50;99.90
53695;DHT22;39588;51.124;7.190;2023-05-07T17:10:41;18.10;99.90
53695;DHT22;39588;51.124;7.190;2023-05-07T17:13:06;18.00;99.90
53695;DHT22;39588;51.124;7.190;2023-05-07T17:15:32;17.90;99.90
53695;DHT22;39588;51.124;7.190;2023-05-07T17:22:50;17.70;99.90
53695;DHT22;39588;51.124;7.190;2023-05-07T17:25:15;17.70;99.90
53695;DHT22;39588;51.124;7.190;2023-05-07T17:27:41;17.60;99.90
53695;DHT22;39588;51.124;7.190;2023-05-07T17:30:07;17.60;99.90
53695;DHT22;39588;51.124;7.190;2023-05-07T17:32:33;17.60;99.90
53695;DHT22;39588;51.124;7.190;2023-05-07T17:34:59;17.60;99.90
53695;DHT22;39588;51.124;7.190;2023-05-07T17:47:10;17.40;99.90
53695;DHT22;39588;51.124;7.190;2023-05-07T17:49:36;17.30;99.90
53695;DHT22;39588;51.124;7.190;2023-05-07T17:54:28;17.40;99.90
53695;DHT22;39588;51.124;7.190;2023-05-07T18:16:25;17.50;99.90
53695;DHT22;39588;51.124;7.190;2023-05-07T19:10:03;17.20;99.90
53695;DHT22;39588;51.124;7.190;2023-05-07T19:14:54;17.10;99.90
53695;DHT22;39588;51.124;7.190;2023-05-07T19:17:20;17.10;99.90
53695;DHT22;39588;51.124;7.190;2023-05-07T19:22:16;17.10;99.90
53695;DHT22;39588;51.124;7.190;2023-05-07T19:29:34;16.90;99.90
53695;DHT22;39588;51.124;7.190;2023-05-07T19:39:20;16.80;99.90
53695;DHT22;39588;51.124;7.190;2023-05-07T19:54:01;16.60;99.90
53695;DHT22;39588;51.124;7.190;2023-05-07T20:06:11;16.50;99.90
53695;DHT22;39588;51.124;7.190;2023-05-07T20:11:03;16.60;99.90
53695;DHT22;39588;51.124;7.190;2023-05-07T20:18:26;16.60;99.90
53695;DHT22;39588;51.124;7.190;2023-05-07T20:20:52;16.60;99.90
53695;DHT22;39588;51.124;7.190;2023-05-07T20:23:18;16.70;99.90
53695;DHT22;39588;51.124;7.190;2023-05-07T20:28:10;16.80;99.90
53695;DHT22;39588;51.124;7.190;2023-05-07T20:30:36;16.80;99.90
53695;DHT22;39588;51.124;7.190;2023-05-07T20:37:55;16.60;99.90
53695;DHT22;39588;51.124;7.190;2023-05-07T20:40:21;16.50;99.90
53695;DHT22;39588;51.124;7.190;2023-05-07T20:42:46;16.40;99.90
53695;DHT22;39588;51.124;7.190;2023-05-07T22:12:54;15.90;99.90
53695;DHT22;39588;51.124;7.190;2023-05-07T22:17:46;15.80;99.90
53695;DHT22;39588;51.124;7.190;2023-05-07T22:30:06;15.70;99.90
53695;DHT22;39588;51.124;7.190;2023-05-07T22:32:32;15.70;99.90
53695;DHT22;39588;51.124;7.190;2023-05-07T22:59:18;15.40;99.90
53695;DHT22;39588;51.124;7.190;2023-05-07T23:01:45;15.40;99.90
53695;DHT22;39588;51.124;7.190;2023-05-07T23:04:11;15.40;99.90
53695;DHT22;39588;51.124;7.190;2023-05-07T23:06:37;15.40;99.90
53695;DHT22;39588;51.124;7.190;2023-05-07T23:11:29;15.40;99.90
53695;DHT22;39588;51.124;7.190;2023-05-07T23:13:55;15.40;99.90
53695;DHT22;39588;51.124;7.190;2023-05-07T23:23:39;15.30;99.90
53695;DHT22;39588;51.124;7.190;2023-05-07T23:28:31;15.30;99.90
53695;DHT22;39588;51.124;7.190;2023-05-07T23:50:24;15.20;99.90
53695;DHT22;39588;51.124;7.190;2023-05-07T23:55:16;15.10;99.90
